sensor_id;sensor_type;location;lat;lon;timestamp;P1;durP1;ratioP1;P2;durP2;ratioP2
3939;SDS011;1984;48.312;9.244;2023-04-28T00:01:47;5.07;;;4.50;;
3939;SDS011;1984;48.312;9.244;2023-04-28T00:04:13;6.87;;;4.40;;
3939;SDS011;1984;48.312;9.244;2023-04-28T00:06:38;5.43;;;4.20;;
3939;SDS011;1984;48.312;9.244;2023-04-28T00:09:05;5.70;;;3.80;;
3939;SDS011;1984;48.312;9.244;2023-04-28T00:11:31;5.80;;;3.83;;
3939;SDS011;1984;48.312;9.244;2023-04-28T00:13:57;5.20;;;4.00;;
3939;SDS011;1984;48.312;9.244;2023-04-28T00:16:22;4.57;;;3.73;;
3939;SDS011;1984;48.312;9.244;2023-04-28T00:18:48;12.30;;;4.10;;
3939;SDS011;1984;48.312;9.244;2023-04-28T00:21:13;4.70;;;4.20;;
3939;SDS011;1984;48.312;9.244;2023-04-28T00:23:39;6.20;;;4.13;;
3939;SDS011;1984;48.312;9.244;2023-04-28T00:26:04;4.80;;;4.10;;
3939;SDS011;1984;48.312;9.244;2023-04-28T00:28:30;5.90;;;4.53;;
3939;SDS011;1984;48.312;9.244;2023-04-28T00:30:55;8.10;;;4.37;;
3939;SDS011;1984;48.312;9.244;2023-04-28T00:33:21;6.30;;;3.90;;
3939;SDS011;1984;48.312;9.244;2023-04-28T00:35:46;5.20;;;4.33;;
3939;SDS011;1984;48.312;9.244;2023-04-28T00:38:12;4.90;;;3.80;;
3939;SDS011;1984;48.312;9.244;2023-04-28T00:40:37;5.20;;;3.80;;
3939;SDS011;1984;48.312;9.244;2023-04-28T00:43:04;4.60;;;3.93;;
3939;SDS011;1984;48.312;9.244;2023-04-28T00:45:30;4.80;;;4.30;;
3939;SDS011;1984;48.312;9.244;2023-04-28T00:47:55;5.97;;;4.07;;
3939;SDS011;1984;48.312;9.244;2023-04-28T00:50:22;3.60;;;3.10;;
3939;SDS011;1984;48.312;9.244;2023-04-28T00:52:50;8.10;;;3.40;;
3939;SDS011;1984;48.312;9.244;2023-04-28T00:55:16;4.30;;;3.67;;
3939;SDS011;1984;48.312;9.244;2023-04-28T00:57:42;5.20;;;4.07;;
3939;SDS011;1984;48.312;9.244;2023-04-28T01:00:08;5.23;;;3.80;;
3939;SDS011;1984;48.312;9.244;2023-04-28T01:02:36;4.90;;;3.40;;
3939;SDS011;1984;48.312;9.244;2023-04-28T01:05:02;5.03;;;3.50;;
3939;SDS011;1984;48.312;9.244;2023-04-28T01:07:29;3.77;;;3.30;;
3939;SDS011;1984;48.312;9.244;2023-04-28T01:09:54;6.33;;;3.50;;
3939;SDS011;1984;48.312;9.244;2023-04-28T01:12:20;3.67;;;3.37;;
3939;SDS011;1984;48.312;9.244;2023-04-28T01:14:46;5.40;;;3.70;;
3939;SDS011;1984;48.312;9.244;2023-04-28T01:17:15;5.27;;;4.30;;
3939;SDS011;1984;48.312;9.244;2023-04-28T01:19:42;5.30;;;3.83;;
3939;SDS011;1984;48.312;9.244;2023-04-28T01:22:07;4.47;;;3.53;;
3939;SDS011;1984;48.312;9.244;2023-04-28T01:24:37;7.70;;;3.50;;
3939;SDS011;1984;48.312;9.244;2023-04-28T01:27:03;7.90;;;4.30;;
3939;SDS011;1984;48.312;9.244;2023-04-28T01:29:29;4.67;;;4.17;;
3939;SDS011;1984;48.312;9.244;2023-04-28T01:31:54;4.53;;;3.27;;
3939;SDS011;1984;48.312;9.244;2023-04-28T01:34:20;3.43;;;3.13;;
3939;SDS011;1984;48.312;9.244;2023-04-28T01:36:45;3.90;;;3.60;;
3939;SDS011;1984;48.312;9.244;2023-04-28T01:39:11;3.27;;;2.97;;
3939;SDS011;1984;48.312;9.244;2023-04-28T01:41:36;3.33;;;3.03;;
3939;SDS011;1984;48.312;9.244;2023-04-28T01:44:02;4.23;;;3.53;;
3939;SDS011;1984;48.312;9.244;2023-04-28T01:46:28;3.43;;;3.13;;
3939;SDS011;1984;48.312;9.244;2023-04-28T01:48:54;4.20;;;2.93;;
3939;SDS011;1984;48.312;9.244;2023-04-28T01:51:20;5.20;;;2.93;;
3939;SDS011;1984;48.312;9.244;2023-04-28T01:53:45;3.40;;;3.10;;
3939;SDS011;1984;48.312;9.244;2023-04-28T01:56:11;4.17;;;3.27;;
3939;SDS011;1984;48.312;9.244;2023-04-28T01:58:36;4.97;;;3.47;;
3939;SDS011;1984;48.312;9.244;2023-04-28T02:01:02;3.53;;;3.23;;
3939;SDS011;1984;48.312;9.244;2023-04-28T02:03:27;3.77;;;2.83;;
3939;SDS011;1984;48.312;9.244;2023-04-28T02:05:53;4.27;;;3.70;;
3939;SDS011;1984;48.312;9.244;2023-04-28T02:08:19;8.00;;;4.20;;
3939;SDS011;1984;48.312;9.244;2023-04-28T02:10:45;3.27;;;2.97;;
3939;SDS011;1984;48.312;9.244;2023-04-28T02:13:10;3.17;;;2.80;;
3939;SDS011;1984;48.312;9.244;2023-04-28T02:15:40;2.63;;;2.47;;
3939;SDS011;1984;48.312;9.244;2023-04-28T02:18:06;2.57;;;2.37;;
3939;SDS011;1984;48.312;9.244;2023-04-28T02:20:32;3.07;;;2.80;;
3939;SDS011;1984;48.312;9.244;2023-04-28T02:22:57;2.53;;;2.33;;
3939;SDS011;1984;48.312;9.244;2023-04-28T02:25:23;4.47;;;2.67;;
3939;SDS011;1984;48.312;9.244;2023-04-28T02:27:48;3.30;;;3.00;;
3939;SDS011;1984;48.312;9.244;2023-04-28T02:30:14;3.17;;;2.87;;
3939;SDS011;1984;48.312;9.244;2023-04-28T02:32:40;3.00;;;2.80;;
3939;SDS011;1984;48.312;9.244;2023-04-28T02:35:05;4.10;;;3.10;;
3939;SDS011;1984;48.312;9.244;2023-04-28T02:37:31;3.90;;;3.33;;
3939;SDS011;1984;48.312;9.244;2023-04-28T02:39:57;2.87;;;2.67;;
3939;SDS011;1984;48.312;9.244;2023-04-28T02:42:22;4.37;;;2.90;;
3939;SDS011;1984;48.312;9.244;2023-04-28T02:44:48;5.00;;;3.30;;
3939;SDS011;1984;48.312;9.244;2023-04-28T02:47:14;3.30;;;3.00;;
3939;SDS011;1984;48.312;9.244;2023-04-28T02:49:39;3.53;;;3.27;;
3939;SDS011;1984;48.312;9.244;2023-04-28T02:52:05;3.73;;;3.13;;
3939;SDS011;1984;48.312;9.244;2023-04-28T02:54:30;4.03;;;3.20;;
3939;SDS011;1984;48.312;9.244;2023-04-28T02:56:58;5.40;;;3.77;;
3939;SDS011;1984;48.312;9.244;2023-04-28T02:59:23;3.60;;;3.30;;
3939;SDS011;1984;48.312;9.244;2023-04-28T03:01:49;4.43;;;3.90;;
3939;SDS011;1984;48.312;9.244;2023-04-28T03:04:15;5.83;;;3.70;;
3939;SDS011;1984;48.312;9.244;2023-04-28T03:06:41;5.40;;;3.47;;
3939;SDS011;1984;48.312;9.244;2023-04-28T03:09:07;10.60;;;5.50;;
3939;SDS011;1984;48.312;9.244;2023-04-28T03:11:33;13.87;;;7.00;;
3939;SDS011;1984;48.312;9.244;2023-04-28T03:13:59;22.53;;;11.33;;
3939;SDS011;1984;48.312;9.244;2023-04-28T03:16:25;23.60;;;11.23;;
3939;SDS011;1984;48.312;9.244;2023-04-28T03:18:50;25.43;;;11.47;;
3939;SDS011;1984;48.312;9.244;2023-04-28T03:21:16;35.67;;;13.43;;
3939;SDS011;1984;48.312;9.244;2023-04-28T03:23:41;22.43;;;12.33;;
3939;SDS011;1984;48.312;9.244;2023-04-28T03:26:07;17.77;;;9.23;;
3939;SDS011;1984;48.312;9.244;2023-04-28T03:28:33;18.40;;;9.60;;
3939;SDS011;1984;48.312;9.244;2023-04-28T03:30:58;14.93;;;8.27;;
3939;SDS011;1984;48.312;9.244;2023-04-28T03:33:24;13.57;;;6.90;;
3939;SDS011;1984;48.312;9.244;2023-04-28T03:35:49;11.43;;;6.47;;
3939;SDS011;1984;48.312;9.244;2023-04-28T03:38:15;10.07;;;4.93;;
3939;SDS011;1984;48.312;9.244;2023-04-28T03:40:40;11.67;;;5.90;;
3939;SDS011;1984;48.312;9.244;2023-04-28T03:43:06;7.03;;;4.60;;
3939;SDS011;1984;48.312;9.244;2023-04-28T03:45:31;8.80;;;3.90;;
3939;SDS011;1984;48.312;9.244;2023-04-28T03:47:57;4.57;;;3.57;;
3939;SDS011;1984;48.312;9.244;2023-04-28T03:50:23;5.10;;;3.33;;
3939;SDS011;1984;48.312;9.244;2023-04-28T03:52:48;3.87;;;3.33;;
3939;SDS011;1984;48.312;9.244;2023-04-28T03:55:14;3.60;;;3.10;;
3939;SDS011;1984;48.312;9.244;2023-04-28T03:57:39;3.20;;;2.90;;
3939;SDS011;1984;48.312;9.244;2023-04-28T04:00:05;3.03;;;2.83;;
3939;SDS011;1984;48.312;9.244;2023-04-28T04:02:31;4.37;;;3.00;;
3939;SDS011;1984;48.312;9.244;2023-04-28T04:04:57;3.20;;;2.93;;
3939;SDS011;1984;48.312;9.244;2023-04-28T04:07:22;4.10;;;3.17;;
3939;SDS011;1984;48.312;9.244;2023-04-28T04:09:48;3.50;;;3.20;;
3939;SDS011;1984;48.312;9.244;2023-04-28T04:12:14;3.30;;;3.00;;
3939;SDS011;1984;48.312;9.244;2023-04-28T04:14:39;3.30;;;3.00;;
3939;SDS011;1984;48.312;9.244;2023-04-28T04:17:05;3.27;;;3.00;;
3939;SDS011;1984;48.312;9.244;2023-04-28T04:19:31;3.87;;;3.10;;
3939;SDS011;1984;48.312;9.244;2023-04-28T04:21:56;3.30;;;3.00;;
3939;SDS011;1984;48.312;9.244;2023-04-28T04:24:22;4.53;;;3.20;;
3939;SDS011;1984;48.312;9.244;2023-04-28T04:26:47;3.70;;;3.40;;
3939;SDS011;1984;48.312;9.244;2023-04-28T04:29:13;3.40;;;3.10;;
3939;SDS011;1984;48.312;9.244;2023-04-28T04:31:38;5.50;;;3.67;;
3939;SDS011;1984;48.312;9.244;2023-04-28T04:34:04;3.87;;;3.57;;
3939;SDS011;1984;48.312;9.244;2023-04-28T04:36:30;4.87;;;3.93;;
3939;SDS011;1984;48.312;9.244;2023-04-28T04:38:56;4.93;;;4.20;;
3939;SDS011;1984;48.312;9.244;2023-04-28T04:41:22;4.70;;;4.30;;
3939;SDS011;1984;48.312;9.244;2023-04-28T04:43:49;10.53;;;4.50;;
3939;SDS011;1984;48.312;9.244;2023-04-28T04:46:15;7.07;;;4.10;;
3939;SDS011;1984;48.312;9.244;2023-04-28T04:48:40;5.53;;;4.23;;
3939;SDS011;1984;48.312;9.244;2023-04-28T04:51:06;4.87;;;4.37;;
3939;SDS011;1984;48.312;9.244;2023-04-28T04:53:31;3.77;;;3.47;;
3939;SDS011;1984;48.312;9.244;2023-04-28T04:55:57;5.10;;;3.80;;
3939;SDS011;1984;48.312;9.244;2023-04-28T04:58:22;6.40;;;4.80;;
3939;SDS011;1984;48.312;9.244;2023-04-28T05:00:48;5.93;;;4.13;;
3939;SDS011;1984;48.312;9.244;2023-04-28T05:03:13;4.67;;;4.00;;
3939;SDS011;1984;48.312;9.244;2023-04-28T05:05:40;6.80;;;5.37;;
3939;SDS011;1984;48.312;9.244;2023-04-28T05:08:05;5.10;;;4.50;;
3939;SDS011;1984;48.312;9.244;2023-04-28T05:10:31;8.03;;;5.50;;
3939;SDS011;1984;48.312;9.244;2023-04-28T05:12:56;5.67;;;4.20;;
3939;SDS011;1984;48.312;9.244;2023-04-28T05:15:22;6.00;;;4.80;;
3939;SDS011;1984;48.312;9.244;2023-04-28T05:17:47;7.30;;;4.93;;
3939;SDS011;1984;48.312;9.244;2023-04-28T05:20:13;7.60;;;5.47;;
3939;SDS011;1984;48.312;9.244;2023-04-28T05:22:39;7.97;;;5.33;;
3939;SDS011;1984;48.312;9.244;2023-04-28T05:25:04;4.73;;;4.33;;
3939;SDS011;1984;48.312;9.244;2023-04-28T05:27:30;12.63;;;5.47;;
3939;SDS011;1984;48.312;9.244;2023-04-28T05:29:56;7.10;;;4.70;;
3939;SDS011;1984;48.312;9.244;2023-04-28T05:32:21;6.73;;;4.77;;
3939;SDS011;1984;48.312;9.244;2023-04-28T05:34:47;7.30;;;5.47;;
3939;SDS011;1984;48.312;9.244;2023-04-28T05:37:12;6.50;;;5.07;;
3939;SDS011;1984;48.312;9.244;2023-04-28T05:39:38;8.67;;;5.53;;
3939;SDS011;1984;48.312;9.244;2023-04-28T05:42:03;10.50;;;5.67;;
3939;SDS011;1984;48.312;9.244;2023-04-28T05:44:30;8.13;;;5.53;;
3939;SDS011;1984;48.312;9.244;2023-04-28T05:46:55;7.70;;;5.30;;
3939;SDS011;1984;48.312;9.244;2023-04-28T05:49:21;6.17;;;5.57;;
3939;SDS011;1984;48.312;9.244;2023-04-28T05:51:46;5.77;;;4.77;;
3939;SDS011;1984;48.312;9.244;2023-04-28T05:54:12;6.20;;;4.67;;
3939;SDS011;1984;48.312;9.244;2023-04-28T05:56:37;6.93;;;4.97;;
3939;SDS011;1984;48.312;9.244;2023-04-28T05:59:03;5.13;;;4.57;;
3939;SDS011;1984;48.312;9.244;2023-04-28T06:01:29;7.00;;;4.60;;
3939;SDS011;1984;48.312;9.244;2023-04-28T06:03:55;5.53;;;4.97;;
3939;SDS011;1984;48.312;9.244;2023-04-28T06:06:22;4.90;;;4.37;;
3939;SDS011;1984;48.312;9.244;2023-04-28T06:08:49;7.37;;;4.83;;
3939;SDS011;1984;48.312;9.244;2023-04-28T06:11:14;5.60;;;4.37;;
3939;SDS011;1984;48.312;9.244;2023-04-28T06:13:40;4.70;;;4.30;;
3939;SDS011;1984;48.312;9.244;2023-04-28T06:16:06;6.23;;;5.17;;
3939;SDS011;1984;48.312;9.244;2023-04-28T06:18:32;5.90;;;4.70;;
3939;SDS011;1984;48.312;9.244;2023-04-28T06:20:57;4.30;;;3.90;;
3939;SDS011;1984;48.312;9.244;2023-04-28T06:23:23;6.83;;;4.33;;
3939;SDS011;1984;48.312;9.244;2023-04-28T06:25:48;5.93;;;3.83;;
3939;SDS011;1984;48.312;9.244;2023-04-28T06:28:14;5.20;;;4.33;;
3939;SDS011;1984;48.312;9.244;2023-04-28T06:30:39;4.00;;;3.63;;
3939;SDS011;1984;48.312;9.244;2023-04-28T06:33:05;5.00;;;4.40;;
3939;SDS011;1984;48.312;9.244;2023-04-28T06:35:31;4.97;;;4.47;;
3939;SDS011;1984;48.312;9.244;2023-04-28T06:38:00;5.67;;;5.07;;
3939;SDS011;1984;48.312;9.244;2023-04-28T06:40:26;3.80;;;3.50;;
3939;SDS011;1984;48.312;9.244;2023-04-28T06:42:51;4.17;;;3.73;;
3939;SDS011;1984;48.312;9.244;2023-04-28T06:45:17;4.20;;;3.80;;
3939;SDS011;1984;48.312;9.244;2023-04-28T06:47:42;4.30;;;3.90;;
3939;SDS011;1984;48.312;9.244;2023-04-28T06:50:08;3.20;;;3.00;;
3939;SDS011;1984;48.312;9.244;2023-04-28T06:52:34;3.87;;;3.40;;
3939;SDS011;1984;48.312;9.244;2023-04-28T06:55:00;3.03;;;2.83;;
3939;SDS011;1984;48.312;9.244;2023-04-28T06:57:25;3.37;;;3.07;;
3939;SDS011;1984;48.312;9.244;2023-04-28T06:59:51;2.43;;;2.23;;
3939;SDS011;1984;48.312;9.244;2023-04-28T07:02:16;2.80;;;2.63;;
3939;SDS011;1984;48.312;9.244;2023-04-28T07:04:42;3.37;;;3.07;;
3939;SDS011;1984;48.312;9.244;2023-04-28T07:07:07;3.13;;;2.83;;
3939;SDS011;1984;48.312;9.244;2023-04-28T07:09:34;5.50;;;3.40;;
3939;SDS011;1984;48.312;9.244;2023-04-28T07:12:00;3.77;;;3.03;;
3939;SDS011;1984;48.312;9.244;2023-04-28T07:14:25;3.60;;;3.30;;
3939;SDS011;1984;48.312;9.244;2023-04-28T07:16:51;3.33;;;3.03;;
3939;SDS011;1984;48.312;9.244;2023-04-28T07:19:16;2.90;;;2.60;;
3939;SDS011;1984;48.312;9.244;2023-04-28T07:21:42;3.37;;;2.83;;
3939;SDS011;1984;48.312;9.244;2023-04-28T07:24:08;3.77;;;3.40;;
3939;SDS011;1984;48.312;9.244;2023-04-28T07:26:33;4.13;;;3.70;;
3939;SDS011;1984;48.312;9.244;2023-04-28T07:28:59;3.10;;;2.80;;
3939;SDS011;1984;48.312;9.244;2023-04-28T07:31:24;6.30;;;5.00;;
3939;SDS011;1984;48.312;9.244;2023-04-28T07:33:50;6.37;;;4.47;;
3939;SDS011;1984;48.312;9.244;2023-04-28T07:36:16;7.37;;;4.20;;
3939;SDS011;1984;48.312;9.244;2023-04-28T07:38:41;6.77;;;4.40;;
3939;SDS011;1984;48.312;9.244;2023-04-28T07:41:07;5.20;;;3.50;;
3939;SDS011;1984;48.312;9.244;2023-04-28T07:43:32;4.40;;;3.60;;
3939;SDS011;1984;48.312;9.244;2023-04-28T07:45:58;8.57;;;4.40;;
3939;SDS011;1984;48.312;9.244;2023-04-28T07:48:24;4.73;;;3.50;;
3939;SDS011;1984;48.312;9.244;2023-04-28T07:50:51;3.10;;;2.73;;
3939;SDS011;1984;48.312;9.244;2023-04-28T07:53:17;5.60;;;3.97;;
3939;SDS011;1984;48.312;9.244;2023-04-28T07:55:42;4.53;;;3.70;;
3939;SDS011;1984;48.312;9.244;2023-04-28T07:58:09;4.53;;;3.33;;
3939;SDS011;1984;48.312;9.244;2023-04-28T08:00:35;6.17;;;4.50;;
3939;SDS011;1984;48.312;9.244;2023-04-28T08:03:01;3.47;;;3.17;;
3939;SDS011;1984;48.312;9.244;2023-04-28T08:05:27;3.70;;;3.23;;
3939;SDS011;1984;48.312;9.244;2023-04-28T08:07:52;3.70;;;3.40;;
3939;SDS011;1984;48.312;9.244;2023-04-28T08:10:18;3.67;;;3.37;;
3939;SDS011;1984;48.312;9.244;2023-04-28T08:12:44;3.37;;;2.80;;
3939;SDS011;1984;48.312;9.244;2023-04-28T08:15:10;3.67;;;3.20;;
3939;SDS011;1984;48.312;9.244;2023-04-28T08:17:36;3.10;;;2.90;;
3939;SDS011;1984;48.312;9.244;2023-04-28T08:20:01;3.20;;;2.90;;
3939;SDS011;1984;48.312;9.244;2023-04-28T08:22:27;3.77;;;3.47;;
3939;SDS011;1984;48.312;9.244;2023-04-28T08:24:53;4.17;;;3.67;;
3939;SDS011;1984;48.312;9.244;2023-04-28T08:27:18;3.90;;;3.40;;
3939;SDS011;1984;48.312;9.244;2023-04-28T08:29:44;3.10;;;2.80;;
3939;SDS011;1984;48.312;9.244;2023-04-28T08:32:09;4.20;;;2.80;;
3939;SDS011;1984;48.312;9.244;2023-04-28T08:34:35;3.00;;;2.80;;
3939;SDS011;1984;48.312;9.244;2023-04-28T08:37:01;3.60;;;3.30;;
3939;SDS011;1984;48.312;9.244;2023-04-28T08:39:26;4.40;;;3.23;;
3939;SDS011;1984;48.312;9.244;2023-04-28T08:41:52;3.10;;;2.90;;
3939;SDS011;1984;48.312;9.244;2023-04-28T08:44:18;2.97;;;2.70;;
3939;SDS011;1984;48.312;9.244;2023-04-28T08:46:44;3.30;;;3.10;;
3939;SDS011;1984;48.312;9.244;2023-04-28T08:49:13;6.23;;;4.93;;
3939;SDS011;1984;48.312;9.244;2023-04-28T08:51:44;3.90;;;3.50;;
3939;SDS011;1984;48.312;9.244;2023-04-28T08:54:12;5.17;;;3.40;;
3939;SDS011;1984;48.312;9.244;2023-04-28T08:56:39;2.73;;;2.53;;
3939;SDS011;1984;48.312;9.244;2023-04-28T08:59:09;3.23;;;2.93;;
3939;SDS011;1984;48.312;9.244;2023-04-28T09:01:35;4.13;;;3.30;;
3939;SDS011;1984;48.312;9.244;2023-04-28T09:04:01;8.57;;;5.40;;
3939;SDS011;1984;48.312;9.244;2023-04-28T09:06:34;6.27;;;4.30;;
3939;SDS011;1984;48.312;9.244;2023-04-28T09:09:19;5.33;;;4.37;;
3939;SDS011;1984;48.312;9.244;2023-04-28T09:14:23;5.17;;;3.97;;
3939;SDS011;1984;48.312;9.244;2023-04-28T09:16:50;5.70;;;4.53;;
3939;SDS011;1984;48.312;9.244;2023-04-28T09:19:16;5.47;;;3.70;;
3939;SDS011;1984;48.312;9.244;2023-04-28T09:21:49;5.03;;;3.77;;
3939;SDS011;1984;48.312;9.244;2023-04-28T09:24:30;4.13;;;3.50;;
3939;SDS011;1984;48.312;9.244;2023-04-28T09:26:56;6.80;;;4.60;;
3939;SDS011;1984;48.312;9.244;2023-04-28T09:29:22;10.23;;;3.43;;
3939;SDS011;1984;48.312;9.244;2023-04-28T09:31:48;3.77;;;3.00;;
3939;SDS011;1984;48.312;9.244;2023-04-28T09:34:14;3.60;;;3.30;;
3939;SDS011;1984;48.312;9.244;2023-04-28T09:36:39;4.07;;;3.10;;
3939;SDS011;1984;48.312;9.244;2023-04-28T09:39:05;3.20;;;2.70;;
3939;SDS011;1984;48.312;9.244;2023-04-28T09:44:15;4.67;;;3.43;;
3939;SDS011;1984;48.312;9.244;2023-04-28T09:46:51;2.60;;;1.80;;
3939;SDS011;1984;48.312;9.244;2023-04-28T09:49:16;2.90;;;1.20;;
3939;SDS011;1984;48.312;9.244;2023-04-28T09:51:42;1.20;;;1.10;;
3939;SDS011;1984;48.312;9.244;2023-04-28T09:54:07;1.70;;;0.97;;
3939;SDS011;1984;48.312;9.244;2023-04-28T09:56:33;5.03;;;0.80;;
3939;SDS011;1984;48.312;9.244;2023-04-28T09:59:02;1.53;;;1.00;;
3939;SDS011;1984;48.312;9.244;2023-04-28T10:01:32;1.53;;;0.87;;
3939;SDS011;1984;48.312;9.244;2023-04-28T10:04:04;0.90;;;0.90;;
3939;SDS011;1984;48.312;9.244;2023-04-28T10:06:32;0.70;;;0.70;;
3939;SDS011;1984;48.312;9.244;2023-04-28T10:09:00;1.20;;;0.70;;
3939;SDS011;1984;48.312;9.244;2023-04-28T10:11:26;1.53;;;0.80;;
3939;SDS011;1984;48.312;9.244;2023-04-28T10:13:52;9.10;;;0.70;;
3939;SDS011;1984;48.312;9.244;2023-04-28T10:16:19;0.57;;;0.57;;
3939;SDS011;1984;48.312;9.244;2023-04-28T10:18:44;0.80;;;0.67;;
3939;SDS011;1984;48.312;9.244;2023-04-28T10:21:11;0.60;;;0.60;;
3939;SDS011;1984;48.312;9.244;2023-04-28T10:29:31;0.60;;;0.60;;
3939;SDS011;1984;48.312;9.244;2023-04-28T10:32:19;0.70;;;0.60;;
3939;SDS011;1984;48.312;9.244;2023-04-28T10:34:43;0.93;;;0.70;;
3939;SDS011;1984;48.312;9.244;2023-04-28T10:37:09;1.00;;;0.63;;
3939;SDS011;1984;48.312;9.244;2023-04-28T10:39:35;0.60;;;0.60;;
3939;SDS011;1984;48.312;9.244;2023-04-28T10:42:00;0.60;;;0.60;;
3939;SDS011;1984;48.312;9.244;2023-04-28T10:46:59;2.57;;;1.60;;
3939;SDS011;1984;48.312;9.244;2023-04-28T11:00:39;1.17;;;0.80;;
3939;SDS011;1984;48.312;9.244;2023-04-28T11:03:05;0.60;;;0.60;;
3939;SDS011;1984;48.312;9.244;2023-04-28T11:05:31;0.57;;;0.57;;
3939;SDS011;1984;48.312;9.244;2023-04-28T11:13:51;0.60;;;0.60;;
3939;SDS011;1984;48.312;9.244;2023-04-28T11:16:19;2.07;;;0.60;;
3939;SDS011;1984;48.312;9.244;2023-04-28T11:18:50;0.80;;;0.77;;
3939;SDS011;1984;48.312;9.244;2023-04-28T11:21:17;1.37;;;0.70;;
3939;SDS011;1984;48.312;9.244;2023-04-28T11:23:44;0.60;;;0.60;;
3939;SDS011;1984;48.312;9.244;2023-04-28T11:26:10;2.40;;;2.30;;
3939;SDS011;1984;48.312;9.244;2023-04-28T11:28:36;0.60;;;0.60;;
3939;SDS011;1984;48.312;9.244;2023-04-28T11:31:10;1.70;;;0.70;;
3939;SDS011;1984;48.312;9.244;2023-04-28T11:33:43;0.53;;;0.53;;
3939;SDS011;1984;48.312;9.244;2023-04-28T11:36:26;0.50;;;0.50;;
3939;SDS011;1984;48.312;9.244;2023-04-28T11:38:57;0.80;;;0.80;;
3939;SDS011;1984;48.312;9.244;2023-04-28T11:41:23;1.80;;;1.00;;
3939;SDS011;1984;48.312;9.244;2023-04-28T11:43:50;0.63;;;0.63;;
3939;SDS011;1984;48.312;9.244;2023-04-28T11:46:20;0.60;;;0.60;;
3939;SDS011;1984;48.312;9.244;2023-04-28T11:48:59;0.60;;;0.50;;
3939;SDS011;1984;48.312;9.244;2023-04-28T11:54:06;1.60;;;0.60;;
3939;SDS011;1984;48.312;9.244;2023-04-28T11:56:38;0.80;;;0.80;;
3939;SDS011;1984;48.312;9.244;2023-04-28T11:59:05;0.60;;;0.60;;
3939;SDS011;1984;48.312;9.244;2023-04-28T12:01:56;0.50;;;0.50;;
3939;SDS011;1984;48.312;9.244;2023-04-28T12:04:35;0.57;;;0.57;;
3939;SDS011;1984;48.312;9.244;2023-04-28T12:07:12;0.97;;;0.60;;
3939;SDS011;1984;48.312;9.244;2023-04-28T12:09:39;0.50;;;0.50;;
3939;SDS011;1984;48.312;9.244;2023-04-28T12:12:13;0.63;;;0.63;;
3939;SDS011;1984;48.312;9.244;2023-04-28T12:15:14;1.40;;;1.30;;
3939;SDS011;1984;48.312;9.244;2023-04-28T12:17:34;0.77;;;0.60;;
3939;SDS011;1984;48.312;9.244;2023-04-28T12:20:11;0.60;;;0.60;;
3939;SDS011;1984;48.312;9.244;2023-04-28T12:22:57;0.60;;;0.60;;
3939;SDS011;1984;48.312;9.244;2023-04-28T12:25:22;0.70;;;0.70;;
3939;SDS011;1984;48.312;9.244;2023-04-28T12:28:04;0.60;;;0.60;;
3939;SDS011;1984;48.312;9.244;2023-04-28T12:30:31;0.70;;;0.70;;
3939;SDS011;1984;48.312;9.244;2023-04-28T12:32:58;0.50;;;0.50;;
3939;SDS011;1984;48.312;9.244;2023-04-28T12:35:25;1.00;;;0.60;;
3939;SDS011;1984;48.312;9.244;2023-04-28T12:37:51;1.90;;;0.70;;
3939;SDS011;1984;48.312;9.244;2023-04-28T12:40:17;1.73;;;0.67;;
3939;SDS011;1984;48.312;9.244;2023-04-28T12:42:43;0.50;;;0.50;;
3939;SDS011;1984;48.312;9.244;2023-04-28T12:45:09;0.60;;;0.60;;
3939;SDS011;1984;48.312;9.244;2023-04-28T12:47:35;0.50;;;0.50;;
3939;SDS011;1984;48.312;9.244;2023-04-28T12:50:01;0.63;;;0.63;;
3939;SDS011;1984;48.312;9.244;2023-04-28T12:52:27;0.80;;;0.80;;
3939;SDS011;1984;48.312;9.244;2023-04-28T12:54:53;0.60;;;0.60;;
3939;SDS011;1984;48.312;9.244;2023-04-28T12:57:18;0.60;;;0.60;;
3939;SDS011;1984;48.312;9.244;2023-04-28T12:59:44;2.93;;;0.70;;
3939;SDS011;1984;48.312;9.244;2023-04-28T13:02:14;0.50;;;0.47;;
3939;SDS011;1984;48.312;9.244;2023-04-28T13:04:40;1.83;;;0.77;;
3939;SDS011;1984;48.312;9.244;2023-04-28T13:07:12;2.00;;;0.60;;
3939;SDS011;1984;48.312;9.244;2023-04-28T13:09:39;0.70;;;0.70;;
3939;SDS011;1984;48.312;9.244;2023-04-28T13:12:06;2.47;;;0.70;;
3939;SDS011;1984;48.312;9.244;2023-04-28T13:14:32;1.07;;;0.80;;
3939;SDS011;1984;48.312;9.244;2023-04-28T13:16:58;0.67;;;0.57;;
3939;SDS011;1984;48.312;9.244;2023-04-28T13:19:23;1.83;;;0.60;;
3939;SDS011;1984;48.312;9.244;2023-04-28T13:21:49;0.60;;;0.50;;
3939;SDS011;1984;48.312;9.244;2023-04-28T13:24:14;0.73;;;0.73;;
3939;SDS011;1984;48.312;9.244;2023-04-28T13:26:40;0.50;;;0.50;;
3939;SDS011;1984;48.312;9.244;2023-04-28T13:29:08;0.53;;;0.53;;
3939;SDS011;1984;48.312;9.244;2023-04-28T13:31:33;3.23;;;0.90;;
3939;SDS011;1984;48.312;9.244;2023-04-28T13:33:59;0.80;;;0.70;;
3939;SDS011;1984;48.312;9.244;2023-04-28T13:36:29;0.80;;;0.60;;
3939;SDS011;1984;48.312;9.244;2023-04-28T13:38:56;2.50;;;0.70;;
3939;SDS011;1984;48.312;9.244;2023-04-28T13:41:22;0.70;;;0.60;;
3939;SDS011;1984;48.312;9.244;2023-04-28T13:43:47;1.63;;;0.70;;
3939;SDS011;1984;48.312;9.244;2023-04-28T13:46:13;1.50;;;0.90;;
3939;SDS011;1984;48.312;9.244;2023-04-28T13:48:39;0.60;;;0.60;;
3939;SDS011;1984;48.312;9.244;2023-04-28T13:51:05;0.70;;;0.60;;
3939;SDS011;1984;48.312;9.244;2023-04-28T13:53:31;0.60;;;0.50;;
3939;SDS011;1984;48.312;9.244;2023-04-28T13:55:57;0.60;;;0.60;;
3939;SDS011;1984;48.312;9.244;2023-04-28T13:58:26;3.87;;;0.70;;
3939;SDS011;1984;48.312;9.244;2023-04-28T14:00:53;0.80;;;0.77;;
3939;SDS011;1984;48.312;9.244;2023-04-28T14:03:20;0.70;;;0.50;;
3939;SDS011;1984;48.312;9.244;2023-04-28T14:05:47;1.13;;;0.60;;
3939;SDS011;1984;48.312;9.244;2023-04-28T14:08:13;0.60;;;0.60;;
3939;SDS011;1984;48.312;9.244;2023-04-28T14:10:39;0.70;;;0.70;;
3939;SDS011;1984;48.312;9.244;2023-04-28T14:13:05;0.60;;;0.60;;
3939;SDS011;1984;48.312;9.244;2023-04-28T14:15:30;0.50;;;0.50;;
3939;SDS011;1984;48.312;9.244;2023-04-28T14:17:57;0.70;;;0.70;;
3939;SDS011;1984;48.312;9.244;2023-04-28T14:20:22;0.70;;;0.70;;
3939;SDS011;1984;48.312;9.244;2023-04-28T14:22:48;2.50;;;0.70;;
3939;SDS011;1984;48.312;9.244;2023-04-28T14:25:13;3.90;;;0.77;;
3939;SDS011;1984;48.312;9.244;2023-04-28T14:27:40;0.60;;;0.60;;
3939;SDS011;1984;48.312;9.244;2023-04-28T14:30:06;0.67;;;0.67;;
3939;SDS011;1984;48.312;9.244;2023-04-28T14:32:32;1.30;;;0.60;;
3939;SDS011;1984;48.312;9.244;2023-04-28T14:34:58;0.90;;;0.70;;
3939;SDS011;1984;48.312;9.244;2023-04-28T14:37:25;9.43;;;0.70;;
3939;SDS011;1984;48.312;9.244;2023-04-28T14:39:51;1.30;;;1.10;;
3939;SDS011;1984;48.312;9.244;2023-04-28T14:42:17;3.83;;;1.30;;
3939;SDS011;1984;48.312;9.244;2023-04-28T14:44:43;1.67;;;1.07;;
3939;SDS011;1984;48.312;9.244;2023-04-28T14:47:10;2.20;;;1.43;;
3939;SDS011;1984;48.312;9.244;2023-04-28T14:49:35;0.70;;;0.70;;
3939;SDS011;1984;48.312;9.244;2023-04-28T14:52:01;1.17;;;0.77;;
3939;SDS011;1984;48.312;9.244;2023-04-28T14:54:27;2.93;;;1.03;;
3939;SDS011;1984;48.312;9.244;2023-04-28T14:56:52;3.13;;;1.10;;
3939;SDS011;1984;48.312;9.244;2023-04-28T14:59:18;1.10;;;1.00;;
3939;SDS011;1984;48.312;9.244;2023-04-28T15:01:44;1.37;;;1.27;;
3939;SDS011;1984;48.312;9.244;2023-04-28T15:04:10;1.40;;;1.30;;
3939;SDS011;1984;48.312;9.244;2023-04-28T15:06:36;1.43;;;1.27;;
3939;SDS011;1984;48.312;9.244;2023-04-28T15:09:01;7.20;;;1.47;;
3939;SDS011;1984;48.312;9.244;2023-04-28T15:11:27;1.57;;;1.43;;
3939;SDS011;1984;48.312;9.244;2023-04-28T15:13:53;1.20;;;1.20;;
3939;SDS011;1984;48.312;9.244;2023-04-28T15:16:18;6.60;;;2.97;;
3939;SDS011;1984;48.312;9.244;2023-04-28T15:18:44;2.30;;;1.40;;
3939;SDS011;1984;48.312;9.244;2023-04-28T15:21:13;1.50;;;1.40;;
3939;SDS011;1984;48.312;9.244;2023-04-28T15:23:38;1.73;;;1.10;;
3939;SDS011;1984;48.312;9.244;2023-04-28T15:26:04;1.97;;;1.57;;
3939;SDS011;1984;48.312;9.244;2023-04-28T15:28:30;4.67;;;3.30;;
3939;SDS011;1984;48.312;9.244;2023-04-28T15:30:56;39.73;;;31.77;;
3939;SDS011;1984;48.312;9.244;2023-04-28T15:33:21;3.07;;;2.73;;
3939;SDS011;1984;48.312;9.244;2023-04-28T15:35:48;1.63;;;1.53;;
3939;SDS011;1984;48.312;9.244;2023-04-28T15:38:14;1.90;;;0.90;;
3939;SDS011;1984;48.312;9.244;2023-04-28T15:40:40;0.80;;;0.80;;
3939;SDS011;1984;48.312;9.244;2023-04-28T15:43:06;0.63;;;0.63;;
3939;SDS011;1984;48.312;9.244;2023-04-28T15:45:32;2.10;;;1.70;;